Time;durP1;ratioP1;P1;durP2;ratioP2;P2;SDS_P1;SDS_P2;PMS_P1;PMS_P2;Temp;Humidity;BMP_temperature;BMP_pressure;BME280_temperature;BME280_humidity;BME280_pressure;Samples;Min_cycle;Max_cycle;Signal;HPM_P1;HPM_P2
2023/07/26 00:00:13;;;;;;;5.53;1.35;;;;;;;15.12;nan;100397.91;5078244;28;20059;-57
2023/07/26 00:02:40;;;;;;;4.18;1.20;;;;;;;15.16;nan;100401.19;5072766;28;20055;-58
2023/07/26 00:05:07;;;;;;;6.70;1.33;;;;;;;15.17;nan;100402.88;5073255;28;20124;-58
2023/07/26 00:07:33;;;;;;;6.70;1.27;;;;;;;15.10;nan;100407.78;5084190;28;20048;-58
2023/07/26 00:10:00;;;;;;;4.53;0.93;;;;;;;15.08;nan;100403.53;5080194;28;20098;-58
2023/07/26 00:12:27;;;;;;;3.17;0.90;;;;;;;14.99;nan;100410.34;5086656;28;20645;-57
2023/07/26 00:14:53;;;;;;;6.35;1.35;;;;;;;14.94;nan;100408.03;5094382;28;20055;-58
2023/07/26 00:17:20;;;;;;;6.32;1.40;;;;;;;14.85;nan;100404.16;5083712;28;20052;-58
2023/07/26 00:19:47;;;;;;;5.05;1.40;;;;;;;14.76;nan;100410.16;5076371;28;20052;-58
2023/07/26 00:22:13;;;;;;;7.88;2.08;;;;;;;14.72;nan;100413.97;5087104;28;20052;-58
2023/07/26 00:24:40;;;;;;;3.25;1.10;;;;;;;14.64;nan;100408.31;5086995;28;20051;-58
2023/07/26 00:27:06;;;;;;;6.65;1.30;;;;;;;14.59;nan;100413.06;5087067;28;20466;-58
2023/07/26 00:29:33;;;;;;;7.65;1.45;;;;;;;14.53;nan;100419.63;5083038;28;20047;-59
2023/07/26 00:31:59;;;;;;;9.73;1.60;;;;;;;14.49;nan;100420.81;5082765;28;20618;-58
2023/07/26 00:34:26;;;;;;;5.55;1.40;;;;;;;14.40;nan;100422.28;5087645;28;20052;-58
2023/07/26 00:36:52;;;;;;;5.22;1.30;;;;;;;14.36;nan;100423.44;5083499;28;20552;-58
2023/07/26 00:39:19;;;;;;;1.63;0.75;;;;;;;14.39;nan;100415.25;5085003;28;20048;-58
2023/07/26 00:41:46;;;;;;;2.80;1.10;;;;;;;14.39;nan;100422.41;5080428;28;20048;-58
2023/07/26 00:44:12;;;;;;;4.90;1.00;;;;;;;14.26;nan;100417.88;5091009;28;20048;-58
2023/07/26 00:46:39;;;;;;;10.65;1.63;;;;;;;14.31;nan;100420.22;5091080;28;20047;-58
2023/07/26 00:49:07;;;;;;;6.82;2.15;;;;;;;14.24;nan;100427.75;5083919;28;20052;-60
2023/07/26 00:51:35;;;;;;;6.32;1.30;;;;;;;14.24;nan;100429.59;5091389;28;20077;-58
2023/07/26 00:54:03;;;;;;;5.93;1.20;;;;;;;14.23;nan;100438.50;5091638;28;20126;-58
2023/07/26 00:56:30;;;;;;;5.50;1.10;;;;;;;14.12;nan;100432.09;5080223;28;20062;-59
2023/07/26 00:58:58;;;;;;;6.72;1.25;;;;;;;14.17;nan;100438.91;5082966;28;20078;-58
2023/07/26 01:01:24;;;;;;;5.15;1.55;;;;;;;14.10;nan;100423.34;5079131;28;20067;-59
2023/07/26 01:03:51;;;;;;;10.88;2.22;;;;;;;14.01;nan;100434.59;5074190;28;20060;-58
2023/07/26 01:06:33;;;;;;;3.30;1.38;;;;;;;13.96;nan;100439.38;5087453;28;20057;-58
2023/07/26 01:09:04;;;;;;;4.20;1.00;;;;;;;13.84;nan;100437.47;5073898;28;20686;-59
2023/07/26 01:11:44;;;;;;;5.35;1.73;;;;;;;13.84;nan;100442.78;5091307;28;20071;-59
2023/07/26 01:14:32;;;;;;;7.65;1.92;;;;;;;13.82;nan;100436.75;5083265;28;20056;-60
2023/07/26 01:16:59;;;;;;;6.20;1.60;;;;;;;13.76;nan;100436.19;5091403;28;20741;-59
2023/07/26 01:19:26;;;;;;;6.03;1.48;;;;;;;13.67;nan;100446.53;5092205;28;20123;-60
2023/07/26 01:21:52;;;;;;;7.93;1.30;;;;;;;13.62;nan;100433.53;5088375;28;20068;-59
2023/07/26 01:24:19;;;;;;;9.18;1.45;;;;;;;13.64;nan;100441.41;5078070;28;20174;-58
2023/07/26 01:26:46;;;;;;;10.05;1.55;;;;;;;13.58;nan;100438.22;5088642;28;20060;-58
2023/07/26 01:29:12;;;;;;;7.93;1.80;;;;;;;13.58;nan;100439.97;5077842;28;20048;-58
2023/07/26 01:31:39;;;;;;;7.80;1.83;;;;;;;13.54;nan;100442.00;5085360;28;20052;-60
2023/07/26 01:34:09;;;;;;;7.47;1.70;;;;;;;13.52;nan;100443.06;5086256;28;20052;-59
2023/07/26 01:36:36;;;;;;;4.70;1.50;;;;;;;13.50;nan;100435.19;5091219;28;20055;-59
2023/07/26 01:39:04;;;;;;;11.07;2.55;;;;;;;13.49;nan;100437.94;5091146;28;20052;-59
2023/07/26 01:41:31;;;;;;;10.52;1.70;;;;;;;13.39;nan;100443.81;5090692;28;20047;-58
2023/07/26 01:43:58;;;;;;;8.68;1.60;;;;;;;13.36;nan;100444.00;5081365;28;20051;-59
2023/07/26 01:46:25;;;;;;;5.63;1.73;;;;;;;13.30;nan;100444.34;5074028;28;20044;-59
2023/07/26 01:48:51;;;;;;;11.30;2.17;;;;;;;13.27;nan;100449.81;5089310;28;20051;-58
2023/07/26 01:51:18;;;;;;;4.07;1.48;;;;;;;13.23;nan;100448.31;5088715;28;20059;-58
2023/07/26 01:53:44;;;;;;;5.72;1.80;;;;;;;13.20;nan;100446.69;5089281;28;20048;-60
2023/07/26 01:56:11;;;;;;;7.22;1.80;;;;;;;13.16;nan;100452.31;5083202;28;20407;-58
2023/07/26 01:58:38;;;;;;;13.18;2.38;;;;;;;13.16;nan;100452.31;5090385;28;20056;-58
2023/07/26 02:01:05;;;;;;;7.60;1.90;;;;;;;13.12;nan;100456.09;5093934;28;20551;-60
2023/07/26 02:03:32;;;;;;;9.30;2.42;;;;;;;13.11;nan;100459.69;5088044;28;20062;-58
2023/07/26 02:05:58;;;;;;;6.88;1.75;;;;;;;13.07;nan;100463.47;5088773;28;20051;-58
2023/07/26 02:08:25;;;;;;;7.03;1.90;;;;;;;12.97;nan;100469.34;5090512;28;20051;-58
2023/07/26 02:10:52;;;;;;;8.65;1.90;;;;;;;12.87;nan;100467.34;5102386;28;20059;-58
2023/07/26 02:13:18;;;;;;;7.50;2.10;;;;;;;12.94;nan;100469.50;5089634;28;20056;-58
2023/07/26 02:15:46;;;;;;;7.40;2.22;;;;;;;12.80;nan;100466.81;5087383;28;20043;-60
2023/07/26 02:18:13;;;;;;;12.20;2.20;;;;;;;12.79;nan;100473.09;5091853;28;20052;-58
2023/07/26 02:20:40;;;;;;;8.57;2.25;;;;;;;12.80;nan;100466.81;5086919;28;20051;-59
2023/07/26 02:23:06;;;;;;;7.43;2.10;;;;;;;12.70;nan;100469.19;5091390;28;20051;-58
2023/07/26 02:25:33;;;;;;;6.88;2.38;;;;;;;12.66;nan;100481.75;5088770;28;20055;-58
2023/07/26 02:27:59;;;;;;;5.90;1.98;;;;;;;12.62;nan;100485.56;5080250;28;20052;-58
2023/07/26 02:30:26;;;;;;;9.18;2.60;;;;;;;12.57;nan;100482.31;5095890;28;20048;-59
2023/07/26 02:32:52;;;;;;;10.68;2.03;;;;;;;12.52;nan;100494.13;5101685;28;20056;-58
2023/07/26 02:35:19;;;;;;;7.63;2.25;;;;;;;12.49;nan;100495.16;5088579;28;20059;-58
2023/07/26 02:37:46;;;;;;;15.60;2.40;;;;;;;12.45;nan;100494.47;5088015;28;20059;-59
2023/07/26 02:40:12;;;;;;;7.78;2.30;;;;;;;12.48;nan;100493.44;5082735;28;20388;-58
2023/07/26 02:42:39;;;;;;;9.77;2.22;;;;;;;12.40;nan;100495.69;5093617;28;20129;-59
2023/07/26 02:45:06;;;;;;;8.88;2.10;;;;;;;12.43;nan;100500.81;5091128;28;20128;-58
2023/07/26 02:47:33;;;;;;;8.05;2.63;;;;;;;12.38;nan;100493.13;5089479;28;20055;-60
2023/07/26 02:50:01;;;;;;;8.82;2.28;;;;;;;12.37;nan;100506.47;5079838;28;20067;-59
2023/07/26 02:52:28;;;;;;;5.20;2.10;;;;;;;12.28;nan;100506.03;5073905;28;20052;-58
2023/07/26 02:54:55;;;;;;;11.50;2.85;;;;;;;12.21;nan;100502.03;5075457;28;20052;-58
2023/07/26 02:57:22;;;;;;;5.22;2.08;;;;;;;12.22;nan;100513.47;5084845;28;20048;-58
2023/07/26 02:59:48;;;;;;;6.20;2.25;;;;;;;12.20;nan;100518.03;5079014;28;20058;-58
2023/07/26 03:02:15;;;;;;;10.52;2.25;;;;;;;12.17;nan;100526.97;5085304;28;20505;-58
2023/07/26 03:04:41;;;;;;;6.57;2.05;;;;;;;12.14;nan;100516.56;5088623;28;20052;-58
2023/07/26 03:07:08;;;;;;;11.98;3.22;;;;;;;12.08;nan;100522.19;5086286;28;20059;-58
2023/07/26 03:09:34;;;;;;;12.13;3.92;;;;;;;12.08;nan;100524.84;5101432;28;20055;-58
2023/07/26 03:12:01;;;;;;;4.22;1.98;;;;;;;12.09;nan;100518.59;5092047;28;20368;-58
2023/07/26 03:14:27;;;;;;;7.40;2.47;;;;;;;12.05;nan;100531.19;5084908;28;20052;-58
2023/07/26 03:16:54;;;;;;;7.28;2.67;;;;;;;12.06;nan;100530.25;5086689;28;20208;-58
2023/07/26 03:19:25;;;;;;;7.53;3.22;;;;;;;12.01;nan;100531.44;5096036;28;20048;-58
2023/07/26 03:21:52;;;;;;;5.18;1.80;;;;;;;12.01;nan;100536.72;5088346;28;20075;-58
2023/07/26 03:24:18;;;;;;;4.93;2.05;;;;;;;11.93;nan;100545.97;5080680;28;20044;-58
2023/07/26 03:26:45;;;;;;;7.85;2.80;;;;;;;11.94;nan;100552.94;5087890;28;20062;-58
2023/07/26 03:29:11;;;;;;;4.10;2.00;;;;;;;11.97;nan;100553.75;5090958;28;20108;-58
2023/07/26 03:31:38;;;;;;;7.32;2.90;;;;;;;11.94;nan;100560.88;5088119;28;20055;-58
2023/07/26 03:34:05;;;;;;;5.15;2.10;;;;;;;11.96;nan;100552.03;5094156;28;20492;-58
2023/07/26 03:36:31;;;;;;;20.70;3.67;;;;;;;11.94;nan;100568.00;5093296;28;20463;-58
2023/07/26 03:38:58;;;;;;;9.20;2.78;;;;;;;11.93;nan;100561.84;5087880;28;20048;-58
2023/07/26 03:41:25;;;;;;;8.18;2.95;;;;;;;11.90;nan;100566.41;5086641;28;20060;-58
2023/07/26 03:43:52;;;;;;;8.90;2.95;;;;;;;12.06;nan;100571.75;5087731;28;20058;-58
2023/07/26 03:46:18;;;;;;;5.55;2.33;;;;;;;12.12;nan;100574.06;5087426;28;20047;-58
2023/07/26 03:48:45;;;;;;;9.38;2.38;;;;;;;12.19;nan;100583.38;5095606;28;20376;-58
2023/07/26 03:51:12;;;;;;;5.35;1.95;;;;;;;12.28;nan;100582.88;5084968;28;20043;-58
2023/07/26 03:53:38;;;;;;;8.52;2.33;;;;;;;12.21;nan;100586.84;5088231;28;20056;-58
2023/07/26 03:56:05;;;;;;;9.10;2.25;;;;;;;12.25;nan;100585.72;5089223;28;20056;-58
2023/07/26 03:58:31;;;;;;;4.95;2.13;;;;;;;12.22;nan;100593.81;5088019;28;20048;-58
2023/07/26 04:00:58;;;;;;;7.47;2.50;;;;;;;12.22;nan;100587.69;5085523;28;20044;-58
2023/07/26 04:03:24;;;;;;;6.05;2.67;;;;;;;12.24;nan;100591.97;5087752;28;20596;-58
2023/07/26 04:05:51;;;;;;;4.13;2.70;;;;;;;12.39;nan;100594.69;5083202;28;20052;-58
2023/07/26 04:08:18;;;;;;;8.10;2.70;;;;;;;12.50;nan;100589.63;5091572;28;20052;-58
2023/07/26 04:10:44;;;;;;;7.45;2.13;;;;;;;12.42;nan;100589.22;5086809;28;20055;-58
2023/07/26 04:13:11;;;;;;;9.45;3.00;;;;;;;12.40;nan;100593.75;5088408;28;20051;-58
2023/07/26 04:15:38;;;;;;;13.85;3.45;;;;;;;12.52;nan;100592.19;5093353;28;20048;-58
2023/07/26 04:18:05;;;;;;;13.38;3.55;;;;;;;12.58;nan;100589.22;5087259;28;20048;-58
2023/07/26 04:20:33;;;;;;;10.30;2.20;;;;;;;12.70;nan;100588.53;5084696;28;20044;-59
2023/07/26 04:22:59;;;;;;;9.35;2.50;;;;;;;12.70;nan;100585.88;5093095;28;20357;-58
2023/07/26 04:25:26;;;;;;;10.38;3.67;;;;;;;12.65;nan;100602.03;5085952;28;20051;-58
2023/07/26 04:27:52;;;;;;;14.02;2.55;;;;;;;12.76;nan;100592.63;5091862;28;20101;-57
2023/07/26 04:30:19;;;;;;;7.88;2.55;;;;;;;12.80;nan;100599.44;5092199;28;20040;-58
2023/07/26 04:32:46;;;;;;;11.25;3.08;;;;;;;12.65;nan;100602.03;5084972;28;20052;-58
2023/07/26 04:35:12;;;;;;;6.25;2.38;;;;;;;12.71;nan;100595.53;5094903;28;20051;-58
2023/07/26 04:37:39;;;;;;;7.55;3.08;;;;;;;12.89;nan;100598.91;5095142;28;20051;-58
2023/07/26 04:40:06;;;;;;;5.65;2.22;;;;;;;12.86;nan;100599.09;5092911;28;20052;-58
2023/07/26 04:42:34;;;;;;;6.50;2.20;;;;;;;13.01;nan;100592.91;5086042;28;20056;-58
2023/07/26 04:45:01;;;;;;;7.68;2.50;;;;;;;12.91;nan;100594.38;5099470;28;20048;-58
2023/07/26 04:47:27;;;;;;;7.47;2.10;;;;;;;12.88;nan;100597.22;5093018;28;20052;-58
2023/07/26 04:49:54;;;;;;;12.25;2.45;;;;;;;12.96;nan;100600.28;5091921;28;20048;-58
2023/07/26 04:52:21;;;;;;;7.07;3.10;;;;;;;13.08;nan;100597.84;5086924;28;20077;-58
2023/07/26 04:54:47;;;;;;;6.07;2.47;;;;;;;13.11;nan;100608.28;5092098;28;20091;-58
2023/07/26 04:57:14;;;;;;;5.32;2.35;;;;;;;13.21;nan;100604.16;5083708;28;20100;-58
2023/07/26 04:59:40;;;;;;;7.53;2.95;;;;;;;13.19;nan;100601.59;5085524;28;20048;-58
2023/07/26 05:02:07;;;;;;;9.20;3.97;;;;;;;13.02;nan;100599.06;5086151;28;20488;-58
2023/07/26 05:04:35;;;;;;;7.32;2.72;;;;;;;13.07;nan;100612.91;5092565;28;20056;-58
2023/07/26 05:07:01;;;;;;;8.75;2.53;;;;;;;13.16;nan;100612.38;5077401;28;20738;-58
2023/07/26 05:09:28;;;;;;;12.20;3.20;;;;;;;13.02;nan;100599.91;5091098;28;20051;-58
2023/07/26 05:11:54;;;;;;;12.95;3.00;;;;;;;13.26;nan;100615.34;5092784;28;20056;-58
2023/07/26 05:14:21;;;;;;;7.32;2.90;;;;;;;13.13;nan;100614.38;5078173;28;20052;-58
2023/07/26 05:16:47;;;;;;;8.40;2.47;;;;;;;13.25;nan;100616.28;5089018;28;20052;-58
2023/07/26 05:19:14;;;;;;;12.45;2.53;;;;;;;13.58;nan;100612.59;5075068;28;20056;-58
2023/07/26 05:21:41;;;;;;;6.85;2.90;;;;;;;13.46;nan;100613.34;5088558;28;20062;-58
2023/07/26 05:24:07;;;;;;;11.20;3.15;;;;;;;13.51;nan;100616.56;5090482;28;20048;-58
2023/07/26 05:26:34;;;;;;;7.50;2.70;;;;;;;13.39;nan;100608.41;5088330;28;20055;-58
2023/07/26 05:29:00;;;;;;;8.35;2.95;;;;;;;13.49;nan;100615.81;5073878;28;20059;-58
2023/07/26 05:31:27;;;;;;;11.48;3.35;;;;;;;13.70;nan;100617.19;5087318;28;20044;-58
2023/07/26 05:33:54;;;;;;;10.25;2.97;;;;;;;13.66;nan;100615.63;5074755;28;20071;-58
2023/07/26 05:36:20;;;;;;;8.32;2.28;;;;;;;13.46;nan;100613.34;5083535;28;20048;-58
2023/07/26 05:38:48;;;;;;;7.88;2.95;;;;;;;13.46;nan;100623.97;5082961;28;20056;-58
2023/07/26 05:41:14;;;;;;;5.60;2.40;;;;;;;13.66;nan;100620.94;5089737;28;20460;-58
2023/07/26 05:43:41;;;;;;;9.05;2.15;;;;;;;13.78;nan;100619.38;5075857;28;20048;-58
2023/07/26 05:46:08;;;;;;;8.45;2.42;;;;;;;13.51;nan;100622.72;5083964;28;20055;-58
2023/07/26 05:48:35;;;;;;;8.85;2.17;;;;;;;13.68;nan;100624.41;5092969;28;20056;-58
2023/07/26 05:51:01;;;;;;;8.73;2.17;;;;;;;13.75;nan;100625.72;5082294;28;20413;-58
2023/07/26 05:53:28;;;;;;;5.70;2.85;;;;;;;13.95;nan;100624.47;5085621;28;20044;-58
2023/07/26 05:55:55;;;;;;;6.03;2.80;;;;;;;13.90;nan;100629.22;5091764;28;20074;-58
2023/07/26 05:58:21;;;;;;;6.30;2.35;;;;;;;14.14;nan;100624.19;5093147;28;20070;-58
2023/07/26 06:00:48;;;;;;;7.68;2.60;;;;;;;14.25;nan;100627.97;5090586;28;20047;-58
2023/07/26 06:03:14;;;;;;;5.70;2.03;;;;;;;14.34;nan;100632.72;5089839;28;20055;-59
2023/07/26 06:05:41;;;;;;;9.55;3.13;;;;;;;14.52;nan;100636.03;5087405;28;20064;-58
2023/07/26 06:08:07;;;;;;;7.25;2.63;;;;;;;14.68;nan;100630.59;5087256;28;20152;-59
2023/07/26 06:10:34;;;;;;;8.77;2.63;;;;;;;14.56;nan;100626.03;5086958;28;20630;-57
2023/07/26 06:13:01;;;;;;;8.15;2.78;;;;;;;14.77;nan;100629.16;5087737;28;20048;-59
2023/07/26 06:15:27;;;;;;;7.72;2.45;;;;;;;14.84;nan;100631.31;5086789;28;20047;-58
2023/07/26 06:17:54;;;;;;;7.18;2.00;;;;;;;14.74;nan;100630.19;5078295;28;20071;-58
2023/07/26 06:20:21;;;;;;;7.03;1.92;;;;;;;14.77;nan;100635.31;5085175;28;20056;-59
2023/07/26 06:22:47;;;;;;;10.65;1.65;;;;;;;14.52;nan;100629.84;5083638;28;20052;-58
2023/07/26 06:25:14;;;;;;;5.35;1.75;;;;;;;14.86;nan;100637.38;5095831;28;20063;-58
2023/07/26 06:27:40;;;;;;;4.75;1.77;;;;;;;14.49;nan;100637.06;5091819;28;20040;-58
2023/07/26 06:30:07;;;;;;;6.75;1.95;;;;;;;14.62;nan;100642.47;5085404;28;20055;-58
2023/07/26 06:32:34;;;;;;;6.25;1.80;;;;;;;14.59;nan;100633.81;5092233;28;20052;-58
2023/07/26 06:35:00;;;;;;;3.80;1.67;;;;;;;14.72;nan;100641.91;5091022;28;20051;-59
2023/07/26 06:37:27;;;;;;;3.00;1.98;;;;;;;14.71;nan;100629.53;5093104;28;20052;-59
2023/07/26 06:39:54;;;;;;;5.60;1.80;;;;;;;14.88;nan;100628.47;5079081;28;20044;-59
2023/07/26 06:42:20;;;;;;;9.73;1.92;;;;;;;15.21;nan;100628.00;5078562;28;20048;-58
2023/07/26 06:44:47;;;;;;;11.40;2.50;;;;;;;15.11;nan;100634.91;5080175;28;20052;-59
2023/07/26 06:47:13;;;;;;;7.20;1.90;;;;;;;15.21;nan;100628.00;5087524;28;20565;-58
2023/07/26 06:49:40;;;;;;;4.90;2.22;;;;;;;15.23;nan;100637.63;5094632;28;20059;-59
2023/07/26 06:52:07;;;;;;;6.80;1.92;;;;;;;15.24;nan;100639.31;5088704;28;20045;-59
2023/07/26 06:54:33;;;;;;;4.88;2.30;;;;;;;15.40;nan;100640.94;5097615;28;20055;-59
2023/07/26 06:57:00;;;;;;;14.18;1.67;;;;;;;15.36;nan;100637.63;5085652;28;20059;-58
2023/07/26 06:59:26;;;;;;;5.05;1.70;;;;;;;15.11;nan;100632.25;5093841;28;20043;-58
2023/07/26 07:01:53;;;;;;;3.67;1.52;;;;;;;15.17;nan;100631.81;5081500;28;20098;-59
2023/07/26 07:04:20;;;;;;;13.40;3.70;;;;;;;15.20;nan;100640.47;5107274;28;20047;-58
2023/07/26 07:06:46;;;;;;;7.47;1.70;;;;;;;15.34;nan;100638.69;5081562;28;20116;-58
2023/07/26 07:09:13;;;;;;;5.88;1.85;;;;;;;15.32;nan;100635.28;5096982;28;20054;-58
2023/07/26 07:11:40;;;;;;;4.35;1.75;;;;;;;15.62;nan;100643.00;5081004;28;20060;-59
2023/07/26 07:14:06;;;;;;;6.68;1.48;;;;;;;15.50;nan;100650.00;5086482;28;20624;-59
2023/07/26 07:16:36;;;;;;;3.47;1.35;;;;;;;15.92;nan;100645.41;5081930;28;20463;-59
2023/07/26 07:19:02;;;;;;;10.15;1.88;;;;;;;16.01;nan;100648.38;5082331;28;20116;-59
2023/07/26 07:21:29;;;;;;;7.35;1.55;;;;;;;16.31;nan;100634.66;5085859;28;20127;-59
2023/07/26 07:23:56;;;;;;;5.30;1.80;;;;;;;15.93;nan;100639.09;5087703;28;20052;-58
2023/07/26 07:26:23;;;;;;;8.20;2.10;;;;;;;16.14;nan;100649.22;5084159;28;20052;-58
2023/07/26 07:28:49;;;;;;;7.47;1.83;;;;;;;16.18;nan;100634.69;5081192;28;20048;-59
2023/07/26 07:31:17;;;;;;;7.15;1.58;;;;;;;16.48;nan;100646.81;5096909;28;20048;-59
2023/07/26 07:33:43;;;;;;;7.45;1.70;;;;;;;16.19;nan;100639.06;5076448;28;20063;-58
2023/07/26 07:36:15;;;;;;;12.20;2.20;;;;;;;16.23;nan;100648.56;5089042;28;20054;-60
2023/07/26 07:38:41;;;;;;;8.55;1.40;;;;;;;16.48;nan;100654.81;5087417;28;20368;-59
2023/07/26 07:41:08;;;;;;;4.25;1.30;;;;;;;16.67;nan;100652.53;5080710;28;20048;-58
2023/07/26 07:43:36;;;;;;;7.20;2.22;;;;;;;16.73;nan;100653.03;5083602;28;20048;-58
2023/07/26 07:46:02;;;;;;;4.18;1.17;;;;;;;16.49;nan;100648.50;5086464;28;20051;-57
2023/07/26 07:48:29;;;;;;;5.70;2.00;;;;;;;16.19;nan;100638.22;5085023;28;20051;-59
2023/07/26 07:50:56;;;;;;;4.45;1.13;;;;;;;16.50;nan;100644.88;5075999;28;20060;-58
2023/07/26 07:53:23;;;;;;;9.73;1.70;;;;;;;16.46;nan;100648.72;5088061;28;20054;-59
2023/07/26 07:55:51;;;;;;;5.85;1.58;;;;;;;16.72;nan;100641.47;5081591;28;20044;-59
2023/07/26 07:58:18;;;;;;;5.22;1.38;;;;;;;16.70;nan;100649.59;5078840;28;20058;-59
2023/07/26 08:00:44;;;;;;;4.10;1.13;;;;;;;16.42;nan;100636.56;5087350;28;20040;-60
2023/07/26 08:03:11;;;;;;;6.07;1.50;;;;;;;16.82;nan;100644.31;5092237;28;20388;-60
2023/07/26 08:05:39;;;;;;;12.13;2.10;;;;;;;17.04;nan;100649.81;5089739;28;20123;-60
2023/07/26 08:08:08;;;;;;;2.90;0.93;;;;;;;16.96;nan;100656.72;5087210;28;20534;-60
2023/07/26 08:10:37;;;;;;;5.47;1.38;;;;;;;16.41;nan;100651.75;5091072;28;20044;-60
2023/07/26 08:13:04;;;;;;;6.05;1.40;;;;;;;16.95;nan;100655.88;5086253;28;20410;-60
2023/07/26 08:15:32;;;;;;;3.05;1.20;;;;;;;16.68;nan;100645.34;5089423;28;20051;-60
2023/07/26 08:17:59;;;;;;;9.02;1.30;;;;;;;16.68;nan;100654.19;5076739;28;20067;-59
2023/07/26 08:20:26;;;;;;;2.00;1.25;;;;;;;16.70;nan;100660.28;5079791;28;20048;-60
2023/07/26 08:22:52;;;;;;;4.53;2.15;;;;;;;16.94;nan;100650.63;5082023;28;20048;-60
2023/07/26 08:25:24;;;;;;;5.15;1.08;;;;;;;17.02;nan;100656.25;5083890;28;20369;-60
2023/07/26 08:27:50;;;;;;;5.95;1.77;;;;;;;16.65;nan;100649.09;5083650;28;20133;-59
2023/07/26 08:30:17;;;;;;;3.10;2.08;;;;;;;17.14;nan;100651.81;5085411;28;20524;-60
2023/07/26 08:32:44;;;;;;;6.85;1.50;;;;;;;17.63;nan;100656.09;5085400;28;20056;-60
2023/07/26 08:35:10;;;;;;;5.35;1.30;;;;;;;18.05;nan;100651.09;5084471;28;20048;-60
2023/07/26 08:37:37;;;;;;;3.25;1.27;;;;;;;17.31;nan;100667.44;5077019;28;20071;-59
2023/07/26 08:40:04;;;;;;;3.45;1.38;;;;;;;18.00;nan;100658.63;5078655;28;20044;-59
2023/07/26 08:42:30;;;;;;;5.03;1.13;;;;;;;17.21;nan;100661.06;5082447;28;20040;-59
2023/07/26 08:44:59;;;;;;;4.95;1.27;;;;;;;18.01;nan;100654.13;5085073;28;20048;-59
2023/07/26 08:47:27;;;;;;;3.25;1.17;;;;;;;18.33;nan;100654.25;5086119;28;20502;-59
2023/07/26 08:49:54;;;;;;;6.20;1.65;;;;;;;18.42;nan;100647.31;5084862;28;20079;-59
2023/07/26 08:52:21;;;;;;;5.68;1.67;;;;;;;17.85;nan;100659.78;5082562;28;20047;-59
2023/07/26 08:54:48;;;;;;;5.65;1.60;;;;;;;17.33;nan;100654.81;5089056;28;20052;-59
2023/07/26 08:57:18;;;;;;;5.10;2.60;;;;;;;17.73;nan;100664.25;5075756;28;20058;-58
2023/07/26 08:59:45;;;;;;;4.13;1.25;;;;;;;17.93;nan;100666.28;5086814;28;20079;-58
2023/07/26 09:02:14;;;;;;;7.40;1.40;;;;;;;17.45;nan;100668.19;5091511;28;20046;-59
2023/07/26 09:04:41;;;;;;;4.53;1.70;;;;;;;17.59;nan;100662.66;5087251;28;20069;-59
2023/07/26 09:07:08;;;;;;;6.47;1.88;;;;;;;17.60;nan;100657.22;5088929;28;20059;-59
2023/07/26 09:09:36;;;;;;;3.83;1.23;;;;;;;18.03;nan;100655.72;5078111;28;20056;-58
2023/07/26 09:12:03;;;;;;;3.95;1.35;;;;;;;18.27;nan;100666.28;5088607;28;20047;-61
2023/07/26 09:14:32;;;;;;;7.05;1.88;;;;;;;18.31;nan;100654.38;5079511;28;20052;-59
2023/07/26 09:17:01;;;;;;;6.90;1.23;;;;;;;18.27;nan;100658.25;5086502;28;20060;-59
2023/07/26 09:19:29;;;;;;;6.22;1.50;;;;;;;17.76;nan;100661.34;5075210;28;20052;-58
2023/07/26 09:21:59;;;;;;;4.38;2.03;;;;;;;17.42;nan;100677.28;5087768;28;20040;-59
2023/07/26 09:24:49;;;;;;;8.20;2.63;;;;;;;17.37;nan;100671.44;5084906;28;20048;-58
2023/07/26 09:27:16;;;;;;;3.28;1.95;;;;;;;17.87;nan;100653.38;5085227;28;20509;-58
2023/07/26 09:29:54;;;;;;;6.28;1.38;;;;;;;17.51;nan;100667.75;5093729;28;20043;-60
2023/07/26 09:32:28;;;;;;;5.32;1.17;;;;;;;17.60;nan;100670.56;5088933;28;20055;-59
2023/07/26 09:34:59;;;;;;;4.38;1.15;;;;;;;17.61;nan;100666.06;5079362;28;20048;-59
2023/07/26 09:37:26;;;;;;;3.85;1.25;;;;;;;17.78;nan;100662.94;5079954;28;20040;-58
2023/07/26 09:39:53;;;;;;;1.63;0.80;;;;;;;18.66;nan;100660.53;5085743;28;20043;-58
2023/07/26 09:42:20;;;;;;;7.80;1.10;;;;;;;18.75;nan;100658.94;5086642;28;20043;-59
2023/07/26 09:44:47;;;;;;;6.55;2.08;;;;;;;18.60;nan;100658.34;5082705;28;20064;-59
2023/07/26 09:47:15;;;;;;;5.60;1.25;;;;;;;18.39;nan;100653.78;5082685;28;20056;-58
2023/07/26 09:49:51;;;;;;;3.97;1.30;;;;;;;18.10;nan;100648.91;5099009;28;20051;-60
2023/07/26 09:52:40;;;;;;;5.63;1.55;;;;;;;18.65;nan;100653.47;5083127;28;20040;-59
2023/07/26 09:55:07;;;;;;;5.22;1.50;;;;;;;18.09;nan;100647.19;5072452;28;20056;-58
2023/07/26 09:57:38;;;;;;;4.93;1.77;;;;;;;18.15;nan;100649.38;5081862;28;20063;-59
2023/07/26 10:00:06;;;;;;;11.25;1.23;;;;;;;18.64;nan;100651.78;5083687;28;20360;-58
2023/07/26 10:02:36;;;;;;;5.53;1.30;;;;;;;18.28;nan;100640.41;5086994;28;20059;-59
2023/07/26 10:05:04;;;;;;;7.82;3.30;;;;;;;18.68;nan;100645.19;5075508;28;20425;-58
2023/07/26 10:07:31;;;;;;;4.00;1.15;;;;;;;19.39;nan;100642.06;5084954;28;20106;-59
2023/07/26 10:10:00;;;;;;;6.22;1.23;;;;;;;19.53;nan;100638.19;5087819;28;20048;-59
2023/07/26 10:12:29;;;;;;;3.95;1.08;;;;;;;19.67;nan;100639.72;5082207;28;20036;-58
2023/07/26 10:14:56;;;;;;;6.22;1.20;;;;;;;19.59;nan;100638.50;5083610;28;20054;-58
2023/07/26 10:17:26;;;;;;;4.47;0.98;;;;;;;19.18;nan;100628.63;5076256;28;20052;-57
2023/07/26 10:19:54;;;;;;;4.37;1.33;;;;;;;19.39;nan;100634.03;5080137;28;20058;-57
2023/07/26 10:22:23;;;;;;;5.05;1.45;;;;;;;19.37;nan;100636.81;5088516;28;20040;-58
2023/07/26 10:24:50;;;;;;;7.82;1.52;;;;;;;19.11;nan;100639.03;5084373;28;20062;-58
2023/07/26 10:27:16;;;;;;;3.50;1.00;;;;;;;19.12;nan;100639.88;5088139;28;20562;-58
2023/07/26 10:29:44;;;;;;;3.55;1.17;;;;;;;19.12;nan;100635.34;5084548;28;20047;-58
2023/07/26 10:32:11;;;;;;;3.20;1.05;;;;;;;19.85;nan;100629.25;5088166;28;20052;-59
2023/07/26 10:34:38;;;;;;;5.13;1.58;;;;;;;19.40;nan;100641.06;5085444;28;20063;-58
2023/07/26 10:37:15;;;;;;;6.25;1.40;;;;;;;19.31;nan;100639.19;5086298;28;20336;-58
2023/07/26 10:39:42;;;;;;;4.20;1.15;;;;;;;19.73;nan;100645.41;5086266;28;20047;-58
2023/07/26 10:42:21;;;;;;;2.30;1.08;;;;;;;19.54;nan;100650.63;5086951;28;20040;-58
2023/07/26 10:44:48;;;;;;;3.38;1.20;;;;;;;19.46;nan;100651.28;5086588;28;20745;-58
2023/07/26 10:47:15;;;;;;;4.82;1.83;;;;;;;19.45;nan;100646.88;5082739;28;20040;-58
2023/07/26 10:49:48;;;;;;;5.43;1.95;;;;;;;18.86;nan;100651.78;5068342;28;20060;-58
2023/07/26 10:52:15;;;;;;;4.35;2.00;;;;;;;18.43;nan;100644.50;5084562;28;20045;-58
2023/07/26 10:54:45;;;;;;;4.03;2.20;;;;;;;18.83;nan;100646.66;5084981;28;20067;-58
2023/07/26 10:57:16;;;;;;;3.42;1.33;;;;;;;18.84;nan;100648.34;5080038;28;20052;-57
2023/07/26 11:00:17;;;;;;;5.65;1.42;;;;;;;18.96;nan;100651.00;5086778;28;20097;-58
2023/07/26 11:03:00;;;;;;;3.42;1.95;;;;;;;18.71;nan;100650.31;5076215;28;20049;-58
2023/07/26 11:05:29;;;;;;;2.88;1.20;;;;;;;18.75;nan;100649.09;5077888;28;20048;-57
2023/07/26 11:08:08;;;;;;;5.47;3.15;;;;;;;19.89;nan;100655.66;5086728;28;20449;-57
2023/07/26 11:10:35;;;;;;;3.70;1.77;;;;;;;21.22;nan;100643.91;5087863;28;20112;-58
2023/07/26 11:13:15;;;;;;;6.07;2.22;;;;;;;20.80;nan;100644.16;5087578;28;20270;-58
2023/07/26 11:15:47;;;;;;;8.05;2.92;;;;;;;21.93;nan;100638.13;5089429;28;20459;-58
2023/07/26 11:18:41;;;;;;;6.78;1.17;;;;;;;21.05;nan;100638.25;5087233;28;20040;-58
2023/07/26 11:21:14;;;;;;;5.00;1.70;;;;;;;20.11;nan;100641.22;5082252;28;20055;-58
2023/07/26 11:23:41;;;;;;;4.50;1.35;;;;;;;19.36;nan;100647.69;5084432;28;20044;-58
2023/07/26 11:26:07;;;;;;;4.57;1.52;;;;;;;19.62;nan;100642.78;5083970;28;20558;-58
2023/07/26 11:28:34;;;;;;;4.20;1.85;;;;;;;20.01;nan;100639.47;5084131;28;20479;-58
2023/07/26 11:31:01;;;;;;;3.20;1.00;;;;;;;21.66;nan;100636.25;5087286;28;20054;-58
2023/07/26 11:33:33;;;;;;;2.80;1.35;;;;;;;21.74;nan;100627.44;5082842;28;20250;-58
2023/07/26 11:36:07;;;;;;;4.32;1.13;;;;;;;22.21;nan;100629.25;5086831;28;20066;-58
2023/07/26 11:38:34;;;;;;;3.25;1.42;;;;;;;21.86;nan;100630.81;5086075;28;20445;-58
2023/07/26 11:41:01;;;;;;;5.95;2.78;;;;;;;19.65;nan;100641.66;5086824;28;20164;-58
2023/07/26 11:43:29;;;;;;;4.78;1.83;;;;;;;19.18;nan;100629.47;5079164;28;20056;-59